Terminal Aerodrome Forecast
Issued by NWS Wilmington, OH

Home | Current Version | Previous Version | Text Only | Print | Product List | Glossary On
Versions: 1 2 3 4 5 6 7 8 9 10 11 12 13 14 15 16 17 18 19
747
FTUS41 KILN 221700
TAFDAY
TAF
KDAY 221726Z 2218/2318 29010G18KT P6SM SCT060
     FM222200 34008KT P6SM SCT250
     FM230200 05005KT P6SM SCT200
     FM231400 14007KT P6SM SCT150=

USA.gov is the U.S. government's official web portal to all federal, state and local government web resources and services.